createdAt,value
2023-02-06T00:00:55.968Z,101174.53
2023-02-06T00:01:58.181Z,101172.83
2023-02-06T00:03:00.522Z,101175.31
2023-02-06T00:04:03.822Z,101175.22
2023-02-06T00:05:06.462Z,101170.05
2023-02-06T00:06:11.138Z,101173.58
2023-02-06T00:07:13.717Z,101171.17
2023-02-06T00:08:15.829Z,101175.22
2023-02-06T00:09:18.726Z,101168.55
2023-02-06T00:10:21.897Z,101172.77
2023-02-06T00:11:25.377Z,101170.28
2023-02-06T00:12:28.749Z,101165.14
2023-02-06T00:13:31.153Z,101166.84
2023-02-06T00:14:33.418Z,101158.34
2023-02-06T00:15:36.038Z,101164.84
2023-02-06T00:16:38.984Z,101169.20
2023-02-06T00:17:41.409Z,101176.84
2023-02-06T00:18:43.749Z,101173.50
2023-02-06T00:19:46.100Z,101167.69
2023-02-06T00:20:49.841Z,101162.66
2023-02-06T00:21:53.126Z,101168.03
2023-02-06T00:22:55.335Z,101167.36
2023-02-06T00:24:00.172Z,101158.89
2023-02-06T00:25:03.056Z,101166.58
2023-02-06T00:26:07.785Z,101173.23
2023-02-06T00:27:10.055Z,101169.02
2023-02-06T00:28:13.270Z,101166.47
2023-02-06T00:29:15.570Z,101167.39
2023-02-06T00:30:18.446Z,101172.63
2023-02-06T00:31:22.139Z,101171.75
2023-02-06T00:32:24.968Z,101175.22
2023-02-06T00:33:27.041Z,101171.75
2023-02-06T00:34:29.676Z,101170.05
2023-02-06T00:35:31.888Z,101171.75
2023-02-06T00:36:34.219Z,101169.94
2023-02-06T00:37:36.514Z,101179.36
2023-02-06T00:38:38.705Z,101166.58
2023-02-06T00:39:40.965Z,101167.53
2023-02-06T00:40:44.122Z,101172.59
2023-02-06T00:41:46.347Z,101169.09
2023-02-06T00:42:48.922Z,101175.96
2023-02-06T00:43:51.149Z,101167.50
2023-02-06T00:44:54.626Z,101159.91
2023-02-06T00:45:57.724Z,101166.75
2023-02-06T00:47:00.724Z,101169.84
2023-02-06T00:48:04.042Z,101167.39
2023-02-06T00:49:07.023Z,101167.39
2023-02-06T00:50:10.080Z,101167.36
2023-02-06T00:51:12.198Z,101170.76
2023-02-06T00:52:14.390Z,101173.41
2023-02-06T00:53:17.111Z,101168.55
2023-02-06T00:54:20.320Z,101166.30
2023-02-06T00:55:24.878Z,101171.41
2023-02-06T00:56:27.677Z,101163.38
2023-02-06T00:57:30.306Z,101161.36
2023-02-06T00:58:32.508Z,101155.09
2023-02-06T00:59:35.042Z,101162.82
2023-02-06T01:00:37.549Z,101160.61
2023-02-06T01:01:39.570Z,101151.44
2023-02-06T01:02:41.786Z,101163.80
2023-02-06T01:03:45.117Z,101160.55
2023-02-06T01:04:47.301Z,101163.44
2023-02-06T01:05:49.787Z,101170.03
2023-02-06T01:06:53.326Z,101158.19
2023-02-06T01:07:55.783Z,101162.86
2023-02-06T01:08:59.959Z,101165.48
2023-02-06T01:10:04.121Z,101166.12
2023-02-06T01:12:21.216Z,101165.66
2023-02-06T01:13:23.443Z,101161.80
2023-02-06T01:14:25.797Z,101154.87
2023-02-06T01:15:28.607Z,101163.59
2023-02-06T01:16:31.403Z,101166.76
2023-02-06T01:17:33.964Z,101166.81
2023-02-06T01:18:36.151Z,101161.09
2023-02-06T01:19:38.361Z,101178.01
2023-02-06T01:20:40.783Z,101162.73
2023-02-06T01:21:42.889Z,101165.28
2023-02-06T01:22:45.047Z,101171.14
2023-02-06T01:23:50.508Z,101170.26
2023-02-06T01:24:52.994Z,101166.51
2023-02-06T01:25:55.567Z,101170.03
2023-02-06T01:26:58.021Z,101170.03
2023-02-06T01:28:00.837Z,101163.13
2023-02-06T01:29:04.581Z,101163.44
2023-02-06T01:30:09.437Z,101148.00
2023-02-06T01:31:14.072Z,101164.20
2023-02-06T01:32:17.380Z,101168.64
2023-02-06T01:33:19.564Z,101159.00
2023-02-06T01:34:22.468Z,101156.42
2023-02-06T01:35:25.650Z,101158.19
2023-02-06T01:36:29.349Z,101165.23
2023-02-06T01:37:32.690Z,101166.91
2023-02-06T01:38:35.452Z,101160.91
2023-02-06T01:39:37.581Z,101164.62
2023-02-06T01:40:40.056Z,101162.82
2023-02-06T01:41:42.342Z,101166.35
2023-02-06T01:42:45.027Z,101168.08
2023-02-06T01:44:09.552Z,101162.98
2023-02-06T01:45:27.277Z,101163.35
2023-02-06T01:46:29.559Z,101159.20
2023-02-06T01:47:31.742Z,101165.61
2023-02-06T01:48:43.448Z,101163.32
2023-02-06T01:49:49.681Z,101167.54
2023-02-06T01:50:55.132Z,101172.94
2023-02-06T01:52:15.752Z,101166.98
2023-02-06T01:53:20.150Z,101171.20
2023-02-06T01:54:23.298Z,101171.05
2023-02-06T01:55:26.165Z,101169.14
2023-02-06T01:56:32.014Z,101178.11
2023-02-06T01:57:34.805Z,101173.66
2023-02-06T01:58:40.505Z,101172.70
2023-02-06T01:59:46.250Z,101172.70
2023-02-06T02:00:48.974Z,101176.84
2023-02-06T02:01:51.087Z,101171.75
2023-02-06T02:02:53.675Z,101175.05
2023-02-06T02:04:06.409Z,101169.84
2023-02-06T02:05:11.763Z,101178.34
2023-02-06T02:06:18.838Z,101185.86
2023-02-06T02:07:27.705Z,101179.87
2023-02-06T02:08:44.806Z,101178.98
2023-02-06T02:09:47.170Z,101180.97
2023-02-06T02:10:50.691Z,101182.45
2023-02-06T02:11:52.877Z,101182.16
2023-02-06T02:12:55.580Z,101188.17
2023-02-06T02:13:59.046Z,101182.16
2023-02-06T02:15:02.316Z,101182.16
2023-02-06T02:16:14.457Z,101188.51
2023-02-06T02:17:22.988Z,101193.72
2023-02-06T02:20:25.696Z,101201.59
2023-02-06T02:21:43.816Z,101195.42
2023-02-06T02:22:52.198Z,101201.25
2023-02-06T02:24:10.114Z,101201.36
2023-02-06T02:25:32.724Z,101203.45
2023-02-06T02:26:58.488Z,101199.75
2023-02-06T02:28:21.785Z,101203.02
2023-02-06T02:29:46.600Z,101204.53
2023-02-06T02:31:11.157Z,101208.93
2023-02-06T02:32:35.276Z,101204.77
2023-02-06T02:33:53.509Z,101208.01
2023-02-06T02:35:16.115Z,101214.06
2023-02-06T02:36:37.770Z,101211.48
2023-02-06T02:37:50.431Z,101201.38
2023-02-06T02:39:20.720Z,101204.77
2023-02-06T02:40:29.911Z,101201.86
2023-02-06T02:41:52.291Z,101208.58
2023-02-06T02:42:59.059Z,101205.78
2023-02-06T02:44:11.473Z,101205.55
2023-02-06T02:45:24.806Z,101204.95
2023-02-06T02:48:06.770Z,101211.56
2023-02-06T02:49:13.475Z,101219.81
2023-02-06T02:50:18.074Z,101211.48
2023-02-06T02:51:21.832Z,101222.33
2023-02-06T02:52:24.108Z,101218.31
2023-02-06T02:53:27.131Z,101218.51
2023-02-06T02:54:29.785Z,101213.22
2023-02-06T02:55:32.104Z,101214.88
2023-02-06T02:56:36.953Z,101213.30
2023-02-06T02:57:40.762Z,101213.30
2023-02-06T02:58:45.709Z,101211.67
2023-02-06T02:59:50.255Z,101220.05
2023-02-06T03:00:59.247Z,101217.50
2023-02-06T03:02:08.074Z,101207.20
2023-02-06T03:03:13.211Z,101215.84
2023-02-06T03:04:19.111Z,101215.03
2023-02-06T03:05:24.545Z,101215.15
2023-02-06T03:06:55.409Z,101221.41
2023-02-06T03:08:13.811Z,101222.37
2023-02-06T03:09:19.931Z,101214.38
2023-02-06T03:10:35.476Z,101219.95
2023-02-06T03:11:41.291Z,101218.33
2023-02-06T03:12:56.617Z,101209.38
2023-02-06T03:14:05.723Z,101219.39
2023-02-06T03:15:11.671Z,101222.75
2023-02-06T03:16:18.090Z,101208.23
2023-02-06T03:18:45.806Z,101216.77
2023-02-06T03:19:52.141Z,101220.83
2023-02-06T03:20:59.557Z,101220.98
2023-02-06T03:22:03.555Z,101226.97
2023-02-06T03:23:07.615Z,101216.77
2023-02-06T03:24:16.573Z,101220.16
2023-02-06T03:25:23.436Z,101225.30
2023-02-06T03:26:27.810Z,101221.02
2023-02-06T03:27:32.199Z,101214.19
2023-02-06T03:28:37.735Z,101217.66
2023-02-06T03:29:42.579Z,101218.70
2023-02-06T03:30:49.000Z,101227.41
2023-02-06T03:31:57.766Z,101221.50
2023-02-06T03:33:03.826Z,101228.23
2023-02-06T03:34:24.843Z,101225.83
2023-02-06T03:35:31.245Z,101224.87
2023-02-06T03:36:34.075Z,101223.17
2023-02-06T03:37:37.682Z,101230.19
2023-02-06T03:38:39.959Z,101235.44
2023-02-06T03:39:42.960Z,101235.44
2023-02-06T03:40:48.267Z,101233.44
2023-02-06T03:41:53.332Z,101226.68
2023-02-06T03:42:58.551Z,101231.89
2023-02-06T03:44:04.565Z,101233.52
2023-02-06T03:45:25.836Z,101227.27
2023-02-06T03:46:29.982Z,101235.06
2023-02-06T03:47:36.406Z,101233.22
2023-02-06T03:48:45.271Z,101232.17
2023-02-06T03:49:50.432Z,101239.86
2023-02-06T03:50:55.580Z,101241.52
2023-02-06T03:52:04.800Z,101237.23
2023-02-06T03:53:09.388Z,101238.13
2023-02-06T03:54:15.090Z,101232.33
2023-02-06T03:55:23.342Z,101237.77
2023-02-06T03:56:29.583Z,101244.52
2023-02-06T03:57:33.843Z,101234.95
2023-02-06T03:58:36.091Z,101236.54
2023-02-06T03:59:38.744Z,101239.23
2023-02-06T04:00:44.552Z,101242.71
2023-02-06T04:01:50.672Z,101242.71
2023-02-06T04:02:54.942Z,101235.84
2023-02-06T04:03:57.773Z,101240.97
2023-02-06T04:05:00.091Z,101236.87
2023-02-06T04:06:02.831Z,101234.48
2023-02-06T04:07:08.650Z,101238.91
2023-02-06T04:08:11.219Z,101249.07
2023-02-06T04:09:13.238Z,101241.16
2023-02-06T04:10:16.029Z,101238.61
2023-02-06T04:11:18.409Z,101240.05
2023-02-06T04:12:21.452Z,101240.05
2023-02-06T04:13:23.875Z,101243.56
2023-02-06T04:14:26.079Z,101242.79
2023-02-06T04:15:28.582Z,101241.90
2023-02-06T04:16:30.931Z,101247.96
2023-02-06T04:17:49.850Z,101245.34
2023-02-06T04:18:37.744Z,101248.00
2023-02-06T04:19:40.273Z,101243.53
2023-02-06T04:20:42.503Z,101244.88
2023-02-06T04:21:44.843Z,101253.42
2023-02-06T04:22:46.964Z,101246.70
2023-02-06T04:23:49.117Z,101251.91
2023-02-06T04:24:51.357Z,101249.39
2023-02-06T04:25:54.161Z,101246.89
2023-02-06T04:26:56.644Z,101253.19
2023-02-06T04:27:58.842Z,101256.81
2023-02-06T04:29:01.063Z,101257.81
2023-02-06T04:30:05.684Z,101256.59
2023-02-06T04:31:07.798Z,101262.88
2023-02-06T04:32:10.279Z,101262.88
2023-02-06T04:33:12.386Z,101263.92
2023-02-06T04:34:14.504Z,101265.73
2023-02-06T04:35:17.890Z,101256.16
2023-02-06T04:36:20.336Z,101264.77
2023-02-06T04:37:22.671Z,101266.58
2023-02-06T04:38:24.614Z,101264.22
2023-02-06T04:39:27.058Z,101264.26
2023-02-06T04:40:29.739Z,101264.26
2023-02-06T04:41:32.653Z,101269.36
2023-02-06T04:42:34.979Z,101262.48
2023-02-06T04:43:37.308Z,101267.39
2023-02-06T04:44:39.535Z,101264.22
2023-02-06T04:45:42.117Z,101262.67
2023-02-06T04:46:45.581Z,101264.41
2023-02-06T04:47:49.692Z,101260.20
2023-02-06T04:48:52.167Z,101272.91
2023-02-06T04:49:54.204Z,101254.98
2023-02-06T04:50:56.898Z,101257.65
2023-02-06T04:51:59.401Z,101259.12
2023-02-06T04:53:01.498Z,101266.66
2023-02-06T04:54:04.603Z,101266.70
2023-02-06T04:55:08.152Z,101268.51
2023-02-06T04:56:12.268Z,101263.25
2023-02-06T04:57:14.333Z,101267.44
2023-02-06T04:58:16.756Z,101269.02
2023-02-06T04:59:19.002Z,101272.38
2023-02-06T05:00:21.430Z,101266.27
2023-02-06T05:01:24.526Z,101271.41
2023-02-06T05:02:26.790Z,101273.19
2023-02-06T05:03:30.249Z,101276.55
2023-02-06T05:04:32.560Z,101275.36
2023-02-06T05:05:35.242Z,101273.73
2023-02-06T05:06:37.866Z,101271.99
2023-02-06T05:07:39.952Z,101262.30
2023-02-06T05:08:42.692Z,101264.84
2023-02-06T05:09:45.568Z,101270.17
2023-02-06T05:10:48.359Z,101264.19
2023-02-06T05:11:50.548Z,101265.69
2023-02-06T05:12:53.208Z,101271.88
2023-02-06T05:13:55.396Z,101262.56
2023-02-06T05:14:57.694Z,101270.52
2023-02-06T05:17:19.378Z,101272.19
2023-02-06T05:18:21.396Z,101262.41
2023-02-06T05:19:23.560Z,101270.25
2023-02-06T05:20:25.991Z,101265.20
2023-02-06T05:21:29.039Z,101270.98
2023-02-06T05:22:30.966Z,101270.06
2023-02-06T05:23:34.666Z,101268.52
2023-02-06T05:24:36.744Z,101260.95
2023-02-06T05:25:42.122Z,101268.44
2023-02-06T05:26:45.832Z,101269.95
2023-02-06T05:27:48.517Z,101271.48
2023-02-06T05:28:50.777Z,101273.22
2023-02-06T05:29:53.761Z,101279.28
2023-02-06T05:30:56.672Z,101277.91
2023-02-06T05:31:59.442Z,101279.59
2023-02-06T05:33:01.791Z,101279.73
2023-02-06T05:34:03.958Z,101274.03
2023-02-06T05:35:07.063Z,101279.25
2023-02-06T05:36:09.948Z,101278.71
2023-02-06T05:37:12.251Z,101278.71
2023-02-06T05:38:15.550Z,101277.09
2023-02-06T05:39:17.905Z,101281.98
2023-02-06T05:40:20.473Z,101291.37
2023-02-06T05:41:22.406Z,101278.63
2023-02-06T05:42:24.721Z,101271.80
2023-02-06T05:43:26.948Z,101276.89
2023-02-06T05:44:29.067Z,101288.05
2023-02-06T05:45:31.197Z,101278.71
2023-02-06T05:46:33.594Z,101280.14
2023-02-06T05:47:35.857Z,101280.91
2023-02-06T05:48:39.651Z,101281.11
2023-02-06T05:50:57.193Z,101277.86
2023-02-06T05:52:00.427Z,101280.25
2023-02-06T05:53:02.634Z,101280.98
2023-02-06T05:54:05.271Z,101275.89
2023-02-06T05:55:08.685Z,101278.63
2023-02-06T05:56:11.775Z,101278.67
2023-02-06T05:57:14.118Z,101286.44
2023-02-06T05:58:17.259Z,101278.78
2023-02-06T05:59:20.689Z,101283.92
2023-02-06T06:00:23.234Z,101280.45
2023-02-06T06:01:25.986Z,101287.09
2023-02-06T06:02:29.193Z,101290.56
2023-02-06T06:03:33.418Z,101287.09
2023-02-06T06:04:35.717Z,101286.16
2023-02-06T06:05:38.284Z,101282.95
2023-02-06T06:06:41.188Z,101288.09
2023-02-06T06:07:43.653Z,101283.81
2023-02-06T06:08:45.950Z,101289.02
2023-02-06T06:09:49.725Z,101288.09
2023-02-06T06:10:52.449Z,101288.98
2023-02-06T06:11:55.582Z,101285.55
2023-02-06T06:12:58.452Z,101286.52
2023-02-06T06:14:00.649Z,101289.95
2023-02-06T06:15:02.985Z,101281.57
2023-02-06T06:16:05.482Z,101285.74
2023-02-06T06:17:07.957Z,101283.46
2023-02-06T06:18:10.589Z,101283.58
2023-02-06T06:19:14.768Z,101281.92
2023-02-06T06:20:28.844Z,101283.58
2023-02-06T06:21:35.085Z,101284.51
2023-02-06T06:22:37.311Z,101282.77
2023-02-06T06:23:39.519Z,101292.97
2023-02-06T06:24:41.989Z,101287.59
2023-02-06T06:25:46.403Z,101280.77
2023-02-06T06:26:48.602Z,101289.45
2023-02-06T06:27:50.949Z,101284.12
2023-02-06T06:28:53.433Z,101280.25
2023-02-06T06:29:55.552Z,101289.44
2023-02-06T06:31:03.543Z,101284.14
2023-02-06T06:32:05.953Z,101285.47
2023-02-06T06:33:08.215Z,101287.05
2023-02-06T06:34:10.547Z,101280.38
2023-02-06T06:35:13.777Z,101283.20
2023-02-06T06:36:17.327Z,101291.81
2023-02-06T06:37:19.789Z,101290.07
2023-02-06T06:38:23.026Z,101294.31
2023-02-06T06:39:26.297Z,101294.47
2023-02-06T06:40:28.815Z,101288.80
2023-02-06T06:41:31.261Z,101293.16
2023-02-06T06:42:33.306Z,101297.56
2023-02-06T06:43:36.562Z,101293.35
2023-02-06T06:44:38.761Z,101295.20
2023-02-06T06:45:40.816Z,101291.28
2023-02-06T06:46:43.106Z,101300.78
2023-02-06T06:47:46.437Z,101292.20
2023-02-06T06:48:49.750Z,101284.45
2023-02-06T06:49:52.123Z,101295.76
2023-02-06T06:50:54.445Z,101290.28
2023-02-06T06:51:57.300Z,101283.37
2023-02-06T06:52:59.574Z,101296.75
2023-02-06T06:54:01.599Z,101305.17
2023-02-06T06:55:03.878Z,101294.82
2023-02-06T06:56:08.325Z,101296.83
2023-02-06T06:57:12.482Z,101298.90
2023-02-06T06:58:15.042Z,101302.19
2023-02-06T06:59:17.998Z,101299.64
2023-02-06T07:00:22.022Z,101298.94
2023-02-06T07:01:24.824Z,101296.42
2023-02-06T07:02:27.902Z,101298.86
2023-02-06T07:03:30.207Z,101306.52
2023-02-06T07:04:32.769Z,101303.33
2023-02-06T07:05:36.547Z,101300.97
2023-02-06T07:06:39.108Z,101307.70
2023-02-06T07:07:41.241Z,101316.16
2023-02-06T07:08:43.499Z,101311.31
2023-02-06T07:09:45.653Z,101314.05
2023-02-06T07:10:49.144Z,101311.61
2023-02-06T07:11:51.321Z,101312.50
2023-02-06T07:12:54.545Z,101307.22
2023-02-06T07:13:56.822Z,101299.13
2023-02-06T07:14:59.056Z,101310.21
2023-02-06T07:16:01.303Z,101316.16
2023-02-06T07:17:03.529Z,101314.35
2023-02-06T07:18:05.650Z,101312.80
2023-02-06T07:19:08.666Z,101315.39
2023-02-06T07:20:11.948Z,101318.02
2023-02-06T07:21:16.357Z,101313.66
2023-02-06T07:22:20.080Z,101316.46
2023-02-06T07:23:23.415Z,101315.02
2023-02-06T07:24:25.673Z,101316.05
2023-02-06T07:25:28.616Z,101315.91
2023-02-06T07:26:33.236Z,101320.12
2023-02-06T07:27:35.475Z,101313.66
2023-02-06T07:28:38.489Z,101314.72
2023-02-06T07:29:40.543Z,101321.75
2023-02-06T07:30:43.140Z,101323.48
2023-02-06T07:31:45.623Z,101317.38
2023-02-06T07:32:47.865Z,101321.75
2023-02-06T07:33:51.063Z,101328.66
2023-02-06T07:34:53.147Z,101328.73
2023-02-06T07:35:55.449Z,101325.30
2023-02-06T07:37:00.406Z,101327.03
2023-02-06T07:38:02.594Z,101323.84
2023-02-06T07:39:04.734Z,101327.32
2023-02-06T07:40:09.053Z,101323.56
2023-02-06T07:41:12.752Z,101335.54
2023-02-06T07:42:15.093Z,101334.91
2023-02-06T07:43:19.750Z,101330.50
2023-02-06T07:44:21.875Z,101330.14
2023-02-06T07:45:25.947Z,101321.64
2023-02-06T07:46:29.351Z,101331.66
2023-02-06T07:47:31.586Z,101319.20
2023-02-06T07:48:33.718Z,101329.80
2023-02-06T07:49:37.176Z,101323.28
2023-02-06T07:50:39.869Z,101334.59
2023-02-06T07:51:43.866Z,101328.81
2023-02-06T07:52:46.914Z,101327.25
2023-02-06T07:53:50.795Z,101332.14
2023-02-06T07:54:53.960Z,101338.88
2023-02-06T07:55:56.257Z,101327.89
2023-02-06T07:56:58.721Z,101331.33
2023-02-06T07:58:00.731Z,101338.41
2023-02-06T07:59:03.424Z,101334.13
2023-02-06T08:00:07.387Z,101334.13
2023-02-06T08:01:11.552Z,101330.12
2023-02-06T08:02:14.888Z,101334.70
2023-02-06T08:03:17.445Z,101334.27
2023-02-06T08:04:19.818Z,101334.59
2023-02-06T08:05:22.330Z,101336.44
2023-02-06T08:06:25.709Z,101336.85
2023-02-06T08:07:29.958Z,101338.08
2023-02-06T08:08:32.302Z,101335.14
2023-02-06T08:09:34.346Z,101332.52
2023-02-06T08:10:39.322Z,101339.36
2023-02-06T08:11:42.157Z,101336.02
2023-02-06T08:12:44.523Z,101342.05
2023-02-06T08:13:48.437Z,101343.66
2023-02-06T08:14:51.434Z,101341.27
2023-02-06T08:15:53.713Z,101341.91
2023-02-06T08:16:56.629Z,101328.36
2023-02-06T08:17:59.012Z,101341.69
2023-02-06T08:19:02.073Z,101346.11
2023-02-06T08:20:05.201Z,101340.61
2023-02-06T08:21:10.953Z,101345.47
2023-02-06T08:22:13.368Z,101347.05
2023-02-06T08:23:15.603Z,101356.42
2023-02-06T08:24:17.994Z,101355.40
2023-02-06T08:25:20.618Z,101347.93
2023-02-06T08:26:24.478Z,101348.69
2023-02-06T08:27:26.814Z,101350.33
2023-02-06T08:28:29.337Z,101353.83
2023-02-06T08:29:32.155Z,101354.59
2023-02-06T08:30:36.302Z,101351.91
2023-02-06T08:31:40.740Z,101354.52
2023-02-06T08:32:43.447Z,101350.48
2023-02-06T08:33:46.767Z,101358.03
2023-02-06T08:34:48.894Z,101356.77
2023-02-06T08:35:51.135Z,101353.45
2023-02-06T08:36:53.378Z,101350.27
2023-02-06T08:37:55.959Z,101352.22
2023-02-06T08:38:59.394Z,101354.91
2023-02-06T08:40:01.813Z,101352.22
2023-02-06T08:41:05.390Z,101362.31
2023-02-06T08:42:07.694Z,101355.40
2023-02-06T08:43:10.317Z,101364.02
2023-02-06T08:44:15.605Z,101358.44
2023-02-06T08:45:17.971Z,101354.02
2023-02-06T08:46:22.940Z,101361.81
2023-02-06T08:47:25.359Z,101354.42
2023-02-06T08:48:27.707Z,101363.80
2023-02-06T08:49:30.313Z,101363.04
2023-02-06T08:50:32.579Z,101355.76
2023-02-06T08:51:36.745Z,101357.73
2023-02-06T08:52:39.750Z,101360.39
2023-02-06T08:53:42.141Z,101355.64
2023-02-06T08:54:44.446Z,101356.59
2023-02-06T08:55:46.970Z,101357.67
2023-02-06T08:56:51.188Z,101357.65
2023-02-06T08:57:53.779Z,101356.16
2023-02-06T08:59:02.512Z,101363.58
2023-02-06T09:00:06.180Z,101356.77
2023-02-06T09:01:13.094Z,101361.88
2023-02-06T09:02:15.220Z,101359.27
2023-02-06T09:03:17.996Z,101358.38
2023-02-06T09:04:21.552Z,101358.44
2023-02-06T09:05:23.941Z,101344.58
2023-02-06T09:06:27.741Z,101344.58
2023-02-06T09:07:31.409Z,101361.22
2023-02-06T09:08:33.716Z,101351.98
2023-02-06T09:09:36.351Z,101355.34
2023-02-06T09:10:38.715Z,101356.16
2023-02-06T09:11:42.162Z,101360.65
2023-02-06T09:12:44.312Z,101348.84
2023-02-06T09:13:49.246Z,101351.31
2023-02-06T09:14:51.579Z,101360.02
2023-02-06T09:15:54.532Z,101352.14
2023-02-06T09:16:58.221Z,101359.83
2023-02-06T09:18:01.583Z,101358.66
2023-02-06T09:19:04.944Z,101357.52
2023-02-06T09:20:09.143Z,101353.48
2023-02-06T09:21:14.563Z,101350.36
2023-02-06T09:22:17.145Z,101351.22
2023-02-06T09:23:19.597Z,101346.03
2023-02-06T09:24:21.805Z,101346.10
2023-02-06T09:25:24.022Z,101342.78
2023-02-06T09:26:29.699Z,101350.64
2023-02-06T09:27:32.934Z,101350.42
2023-02-06T09:28:34.885Z,101348.37
2023-02-06T09:29:36.999Z,101345.97
2023-02-06T09:30:39.277Z,101353.02
2023-02-06T09:31:42.717Z,101340.98
2023-02-06T09:32:45.121Z,101345.16
2023-02-06T09:33:47.237Z,101355.02
2023-02-06T09:34:49.690Z,101346.20
2023-02-06T09:36:06.209Z,101357.34
2023-02-06T09:37:08.368Z,101343.78
2023-02-06T09:38:10.420Z,101339.52
2023-02-06T09:39:12.996Z,101346.53
2023-02-06T09:40:18.946Z,101349.16
2023-02-06T09:41:27.981Z,101347.78
2023-02-06T09:42:39.661Z,101347.68
2023-02-06T09:43:45.954Z,101347.68
2023-02-06T09:45:06.944Z,101346.69
2023-02-06T09:46:14.717Z,101356.88
2023-02-06T09:47:26.721Z,101343.80
2023-02-06T09:48:32.286Z,101350.54
2023-02-06T09:49:49.631Z,101346.47
2023-02-06T09:50:58.697Z,101330.23
2023-02-06T09:52:07.787Z,101334.19
2023-02-06T09:53:42.712Z,101334.70
2023-02-06T09:54:51.973Z,101337.39
2023-02-06T09:56:17.211Z,101339.13
2023-02-06T09:57:44.471Z,101345.05
2023-02-06T09:59:11.280Z,101347.00
2023-02-06T10:00:32.789Z,101336.64
2023-02-06T10:01:50.803Z,101345.26
2023-02-06T10:03:07.135Z,101341.00
2023-02-06T10:04:29.017Z,101337.56
2023-02-06T10:05:40.811Z,101337.63
2023-02-06T10:06:49.953Z,101347.61
2023-02-06T10:08:23.547Z,101332.63
2023-02-06T10:09:32.346Z,101343.02
2023-02-06T10:10:46.906Z,101345.70
2023-02-06T10:12:01.528Z,101342.06
2023-02-06T10:13:24.131Z,101340.36
2023-02-06T10:14:41.889Z,101335.19
2023-02-06T10:15:47.720Z,101333.75
2023-02-06T10:16:54.240Z,101330.21
2023-02-06T10:18:01.203Z,101325.58
2023-02-06T10:19:25.239Z,101332.70
2023-02-06T10:20:54.357Z,101326.09
2023-02-06T10:22:02.979Z,101328.81
2023-02-06T10:23:30.320Z,101333.00
2023-02-06T10:24:36.755Z,101330.28
2023-02-06T10:25:45.638Z,101330.11
2023-02-06T10:26:51.737Z,101335.41
2023-02-06T10:28:01.541Z,101327.95
2023-02-06T10:29:06.596Z,101328.37
2023-02-06T10:30:20.279Z,101325.17
2023-02-06T10:31:29.143Z,101332.48
2023-02-06T10:32:49.963Z,101326.69
2023-02-06T10:34:24.434Z,101330.41
2023-02-06T10:35:33.098Z,101327.39
2023-02-06T10:37:00.592Z,101326.51
2023-02-06T10:38:26.315Z,101324.02
2023-02-06T10:39:53.317Z,101321.64
2023-02-06T10:42:22.912Z,101313.28
2023-02-06T10:43:48.667Z,101320.56
2023-02-06T10:45:21.145Z,101314.63
2023-02-06T10:46:36.250Z,101315.28
2023-02-06T10:47:54.602Z,101324.63
2023-02-06T10:49:06.278Z,101320.95
2023-02-06T10:50:21.826Z,101319.08
2023-02-06T10:51:34.297Z,101320.06
2023-02-06T10:52:38.635Z,101325.17
2023-02-06T10:53:50.418Z,101321.80
2023-02-06T10:54:58.907Z,101318.49
2023-02-06T10:56:11.049Z,101323.08
2023-02-06T10:57:19.997Z,101322.06
2023-02-06T10:58:25.805Z,101317.74
2023-02-06T10:59:39.702Z,101319.64
2023-02-06T11:00:45.875Z,101322.20
2023-02-06T11:01:51.074Z,101325.64
2023-02-06T11:03:07.206Z,101314.73
2023-02-06T11:04:12.702Z,101320.09
2023-02-06T11:05:22.237Z,101318.59
2023-02-06T11:06:28.759Z,101316.91
2023-02-06T11:07:34.654Z,101316.03
2023-02-06T11:08:41.641Z,101316.13
2023-02-06T11:09:44.494Z,101322.91
2023-02-06T11:10:47.394Z,101319.50
2023-02-06T11:11:53.710Z,101308.36
2023-02-06T11:13:08.516Z,101316.95
2023-02-06T11:14:27.729Z,101323.03
2023-02-06T11:15:39.530Z,101324.86
2023-02-06T11:16:44.141Z,101324.26
2023-02-06T11:17:46.803Z,101321.70
2023-02-06T11:18:50.590Z,101325.90
2023-02-06T11:19:54.822Z,101327.83
2023-02-06T11:20:57.910Z,101324.91
2023-02-06T11:22:16.780Z,101318.69
2023-02-06T11:23:23.416Z,101327.95
2023-02-06T11:24:25.877Z,101329.73
2023-02-06T11:25:33.013Z,101323.80
2023-02-06T11:26:41.278Z,101336.64
2023-02-06T11:27:44.477Z,101338.34
2023-02-06T11:28:59.124Z,101324.03
2023-02-06T11:30:04.994Z,101336.64
2023-02-06T11:31:09.251Z,101343.08
2023-02-06T11:32:37.674Z,101339.81
2023-02-06T11:33:46.877Z,101339.58
2023-02-06T11:34:59.103Z,101337.56
2023-02-06T11:36:04.476Z,101330.38
2023-02-06T11:37:27.080Z,101334.40
2023-02-06T11:38:30.952Z,101330.86
2023-02-06T11:39:39.007Z,101327.95
2023-02-06T11:40:43.284Z,101323.80
2023-02-06T11:42:04.142Z,101326.64
2023-02-06T11:43:20.824Z,101323.27
2023-02-06T11:44:29.009Z,101327.21
2023-02-06T11:45:33.432Z,101329.25
2023-02-06T11:46:38.246Z,101317.30
2023-02-06T11:47:40.372Z,101330.30
2023-02-06T11:48:47.163Z,101322.92
2023-02-06T11:49:49.451Z,101329.02
2023-02-06T11:50:54.250Z,101328.84
2023-02-06T11:51:59.282Z,101326.22
2023-02-06T11:53:11.339Z,101324.48
2023-02-06T11:54:19.559Z,101320.16
2023-02-06T11:55:24.812Z,101331.89
2023-02-06T11:56:29.521Z,101340.12
2023-02-06T11:57:33.799Z,101332.14
2023-02-06T11:58:36.045Z,101326.55
2023-02-06T11:59:41.799Z,101324.37
2023-02-06T12:00:56.907Z,101327.54
2023-02-06T12:02:00.924Z,101332.02
2023-02-06T12:03:07.031Z,101326.48
2023-02-06T12:04:21.223Z,101326.84
2023-02-06T12:05:27.541Z,101327.03
2023-02-06T12:06:35.916Z,101322.43
2023-02-06T12:07:44.620Z,101323.56
2023-02-06T12:08:52.861Z,101328.13
2023-02-06T12:09:55.808Z,101315.57
2023-02-06T12:11:03.780Z,101322.11
2023-02-06T12:12:18.338Z,101325.85
2023-02-06T12:13:25.422Z,101320.48
2023-02-06T12:14:41.177Z,101313.31
2023-02-06T12:15:48.271Z,101320.05
2023-02-06T12:16:53.329Z,101320.37
2023-02-06T12:17:59.721Z,101310.97
2023-02-06T12:19:06.055Z,101315.43
2023-02-06T12:20:26.756Z,101310.19
2023-02-06T12:21:49.823Z,101316.42
2023-02-06T12:23:06.305Z,101309.78
2023-02-06T12:24:28.095Z,101333.82
2023-02-06T12:25:36.858Z,101314.31
2023-02-06T12:26:40.611Z,101321.41
2023-02-06T12:27:44.562Z,101308.35
2023-02-06T12:28:54.516Z,101315.52
2023-02-06T12:30:17.322Z,101321.79
2023-02-06T12:31:23.606Z,101327.39
2023-02-06T12:32:39.632Z,101314.45
2023-02-06T12:33:55.251Z,101317.00
2023-02-06T12:35:03.182Z,101320.83
2023-02-06T12:36:14.245Z,101320.94
2023-02-06T12:37:29.931Z,101319.41
2023-02-06T12:38:41.477Z,101322.92
2023-02-06T12:39:44.979Z,101314.34
2023-02-06T12:41:14.126Z,101316.97
2023-02-06T12:42:46.188Z,101309.23